sensor_id;sensor_type;location;lat;lon;timestamp;pressure;altitude;pressure_sealevel;temperature;humidity
84959;BME280;75256;48.062;11.662;2024-03-25T00:01:37;94510.59;;;2.52;86.71
84959;BME280;75256;48.062;11.662;2024-03-25T00:04:03;94524.34;;;2.58;86.36
84959;BME280;75256;48.062;11.662;2024-03-25T00:06:31;94522.06;;;2.57;86.53
84959;BME280;75256;48.062;11.662;2024-03-25T00:09:00;94521.94;;;2.64;86.30
84959;BME280;75256;48.062;11.662;2024-03-25T00:11:25;94528.00;;;2.68;85.12
84959;BME280;75256;48.062;11.662;2024-03-25T00:13:54;94519.97;;;2.44;86.20
84959;BME280;75256;48.062;11.662;2024-03-25T00:16:21;94517.69;;;2.43;86.45
84959;BME280;75256;48.062;11.662;2024-03-25T00:18:47;94521.28;;;2.36;86.72
84959;BME280;75256;48.062;11.662;2024-03-25T00:21:17;94508.56;;;2.37;87.01
84959;BME280;75256;48.062;11.662;2024-03-25T00:23:44;94513.09;;;2.43;86.62
84959;BME280;75256;48.062;11.662;2024-03-25T00:26:10;94520.50;;;2.36;86.19
84959;BME280;75256;48.062;11.662;2024-03-25T00:28:35;94517.00;;;2.39;86.35
84959;BME280;75256;48.062;11.662;2024-03-25T00:31:01;94506.28;;;2.35;86.77
84959;BME280;75256;48.062;11.662;2024-03-25T00:33:26;94516.78;;;2.30;86.72
84959;BME280;75256;48.062;11.662;2024-03-25T00:35:52;94508.16;;;2.38;86.75
84959;BME280;75256;48.062;11.662;2024-03-25T00:38:17;94503.75;;;2.48;85.71
84959;BME280;75256;48.062;11.662;2024-03-25T00:40:43;94501.56;;;2.63;85.55
84959;BME280;75256;48.062;11.662;2024-03-25T00:43:11;94506.41;;;2.71;84.62
84959;BME280;75256;48.062;11.662;2024-03-25T00:45:39;94498.59;;;2.57;85.20
84959;BME280;75256;48.062;11.662;2024-03-25T00:48:07;94502.44;;;2.56;85.04
84959;BME280;75256;48.062;11.662;2024-03-25T00:50:33;94495.19;;;2.73;84.21
84959;BME280;75256;48.062;11.662;2024-03-25T00:52:58;94503.84;;;2.64;84.62
84959;BME280;75256;48.062;11.662;2024-03-25T00:55:23;94504.91;;;2.47;85.36
84959;BME280;75256;48.062;11.662;2024-03-25T00:57:50;94496.03;;;2.50;84.84
84959;BME280;75256;48.062;11.662;2024-03-25T01:00:15;94504.38;;;2.55;84.86
84959;BME280;75256;48.062;11.662;2024-03-25T01:02:41;94498.91;;;2.39;85.15
84959;BME280;75256;48.062;11.662;2024-03-25T01:05:07;94496.44;;;2.25;86.18
84959;BME280;75256;48.062;11.662;2024-03-25T01:07:33;94502.50;;;2.33;85.59
84959;BME280;75256;48.062;11.662;2024-03-25T01:09:58;94513.63;;;2.54;85.06
84959;BME280;75256;48.062;11.662;2024-03-25T01:12:24;94505.06;;;2.40;84.88
84959;BME280;75256;48.062;11.662;2024-03-25T01:14:50;94492.78;;;2.16;85.27
84959;BME280;75256;48.062;11.662;2024-03-25T01:17:20;94488.13;;;2.20;85.90
84959;BME280;75256;48.062;11.662;2024-03-25T01:19:48;94491.44;;;2.47;84.33
84959;BME280;75256;48.062;11.662;2024-03-25T01:22:13;94485.63;;;2.29;85.88
84959;BME280;75256;48.062;11.662;2024-03-25T01:24:39;94495.91;;;2.34;85.58
84959;BME280;75256;48.062;11.662;2024-03-25T01:27:06;94481.91;;;2.23;85.60
84959;BME280;75256;48.062;11.662;2024-03-25T01:29:34;94485.38;;;2.43;84.49
84959;BME280;75256;48.062;11.662;2024-03-25T01:32:00;94492.50;;;2.33;84.84
84959;BME280;75256;48.062;11.662;2024-03-25T01:34:28;94496.72;;;2.11;85.48
84959;BME280;75256;48.062;11.662;2024-03-25T01:36:56;94487.41;;;2.16;85.48
84959;BME280;75256;48.062;11.662;2024-03-25T01:39:21;94489.75;;;2.14;85.45
84959;BME280;75256;48.062;11.662;2024-03-25T01:41:47;94487.09;;;2.33;85.27
84959;BME280;75256;48.062;11.662;2024-03-25T01:44:12;94496.22;;;2.39;84.29
84959;BME280;75256;48.062;11.662;2024-03-25T01:46:38;94497.69;;;2.21;85.30
84959;BME280;75256;48.062;11.662;2024-03-25T01:49:06;94498.63;;;2.34;85.03
84959;BME280;75256;48.062;11.662;2024-03-25T01:51:33;94501.41;;;2.50;83.56
84959;BME280;75256;48.062;11.662;2024-03-25T01:53:59;94494.28;;;2.40;83.77
84959;BME280;75256;48.062;11.662;2024-03-25T01:56:25;94501.25;;;2.37;84.32
84959;BME280;75256;48.062;11.662;2024-03-25T01:58:51;94494.63;;;2.42;84.34
84959;BME280;75256;48.062;11.662;2024-03-25T02:01:18;94498.81;;;2.23;84.46
84959;BME280;75256;48.062;11.662;2024-03-25T02:03:45;94502.22;;;2.47;84.17
84959;BME280;75256;48.062;11.662;2024-03-25T02:06:15;94504.59;;;2.45;83.84
84959;BME280;75256;48.062;11.662;2024-03-25T02:08:43;94498.66;;;2.53;83.91
84959;BME280;75256;48.062;11.662;2024-03-25T02:11:10;94500.72;;;2.46;82.80
84959;BME280;75256;48.062;11.662;2024-03-25T02:13:38;94503.81;;;2.44;83.70
84959;BME280;75256;48.062;11.662;2024-03-25T02:16:07;94503.63;;;2.55;83.31
84959;BME280;75256;48.062;11.662;2024-03-25T02:18:32;94499.88;;;2.49;83.66
84959;BME280;75256;48.062;11.662;2024-03-25T02:21:00;94499.75;;;2.36;84.59
84959;BME280;75256;48.062;11.662;2024-03-25T02:23:27;94495.25;;;2.30;84.39
84959;BME280;75256;48.062;11.662;2024-03-25T02:25:57;94500.53;;;2.57;83.28
84959;BME280;75256;48.062;11.662;2024-03-25T02:28:22;94501.34;;;2.53;83.29
84959;BME280;75256;48.062;11.662;2024-03-25T02:30:48;94509.63;;;2.43;83.33
84959;BME280;75256;48.062;11.662;2024-03-25T02:33:13;94487.25;;;2.46;83.60
84959;BME280;75256;48.062;11.662;2024-03-25T02:35:42;94492.69;;;2.42;83.45
84959;BME280;75256;48.062;11.662;2024-03-25T02:38:09;94496.50;;;2.45;83.52
84959;BME280;75256;48.062;11.662;2024-03-25T02:40:35;94496.59;;;2.61;82.95
84959;BME280;75256;48.062;11.662;2024-03-25T02:43:04;94488.44;;;2.45;83.42
84959;BME280;75256;48.062;11.662;2024-03-25T02:45:32;94504.47;;;2.72;82.67
84959;BME280;75256;48.062;11.662;2024-03-25T02:48:00;94502.59;;;2.69;82.47
84959;BME280;75256;48.062;11.662;2024-03-25T02:50:31;94499.94;;;2.45;83.44
84959;BME280;75256;48.062;11.662;2024-03-25T02:52:58;94500.59;;;2.53;83.39
84959;BME280;75256;48.062;11.662;2024-03-25T02:55:24;94499.38;;;2.77;81.41
84959;BME280;75256;48.062;11.662;2024-03-25T02:57:49;94505.03;;;2.63;82.47
84959;BME280;75256;48.062;11.662;2024-03-25T03:00:19;94495.63;;;2.71;81.64
84959;BME280;75256;48.062;11.662;2024-03-25T03:02:44;94492.66;;;2.85;81.21
84959;BME280;75256;48.062;11.662;2024-03-25T03:05:10;94506.88;;;2.66;82.35
84959;BME280;75256;48.062;11.662;2024-03-25T03:07:37;94503.56;;;2.59;82.26
84959;BME280;75256;48.062;11.662;2024-03-25T03:10:03;94502.22;;;2.47;83.15
84959;BME280;75256;48.062;11.662;2024-03-25T03:12:31;94503.34;;;2.49;83.42
84959;BME280;75256;48.062;11.662;2024-03-25T03:14:58;94494.94;;;2.67;82.88
84959;BME280;75256;48.062;11.662;2024-03-25T03:17:24;94504.91;;;2.47;83.48
84959;BME280;75256;48.062;11.662;2024-03-25T03:19:49;94502.63;;;2.45;84.38
84959;BME280;75256;48.062;11.662;2024-03-25T03:22:15;94508.56;;;2.37;84.55
84959;BME280;75256;48.062;11.662;2024-03-25T03:24:44;94507.47;;;2.54;82.95
84959;BME280;75256;48.062;11.662;2024-03-25T03:27:10;94509.50;;;2.50;83.70
84959;BME280;75256;48.062;11.662;2024-03-25T03:29:35;94504.53;;;2.48;83.15
84959;BME280;75256;48.062;11.662;2024-03-25T03:32:00;94511.66;;;2.59;83.36
84959;BME280;75256;48.062;11.662;2024-03-25T03:34:28;94510.22;;;2.74;82.37
84959;BME280;75256;48.062;11.662;2024-03-25T03:36:54;94516.41;;;2.71;81.87
84959;BME280;75256;48.062;11.662;2024-03-25T03:39:21;94518.38;;;2.47;82.88
84959;BME280;75256;48.062;11.662;2024-03-25T03:41:51;94514.41;;;2.55;82.53
84959;BME280;75256;48.062;11.662;2024-03-25T03:44:19;94519.16;;;2.47;82.99
84959;BME280;75256;48.062;11.662;2024-03-25T03:46:44;94514.75;;;2.57;82.15
84959;BME280;75256;48.062;11.662;2024-03-25T03:49:09;94517.19;;;2.28;83.10
84959;BME280;75256;48.062;11.662;2024-03-25T03:51:35;94525.06;;;2.39;82.68
84959;BME280;75256;48.062;11.662;2024-03-25T03:54:00;94518.47;;;1.97;83.97
84959;BME280;75256;48.062;11.662;2024-03-25T03:56:28;94524.16;;;2.03;84.58
84959;BME280;75256;48.062;11.662;2024-03-25T03:58:53;94518.03;;;2.22;83.33
84959;BME280;75256;48.062;11.662;2024-03-25T04:01:19;94519.13;;;2.05;83.92
84959;BME280;75256;48.062;11.662;2024-03-25T04:03:44;94517.84;;;1.90;84.75
84959;BME280;75256;48.062;11.662;2024-03-25T04:06:13;94521.38;;;1.83;84.88
84959;BME280;75256;48.062;11.662;2024-03-25T04:08:39;94518.63;;;1.87;84.97
84959;BME280;75256;48.062;11.662;2024-03-25T04:11:05;94520.00;;;1.72;84.50
84959;BME280;75256;48.062;11.662;2024-03-25T04:13:35;94514.53;;;1.79;85.11
84959;BME280;75256;48.062;11.662;2024-03-25T04:16:05;94517.88;;;1.86;84.37
84959;BME280;75256;48.062;11.662;2024-03-25T04:18:31;94513.97;;;1.91;84.17
84959;BME280;75256;48.062;11.662;2024-03-25T04:20:57;94516.44;;;1.78;84.32
84959;BME280;75256;48.062;11.662;2024-03-25T04:23:25;94514.34;;;1.66;84.79
84959;BME280;75256;48.062;11.662;2024-03-25T04:25:53;94515.94;;;1.87;84.21
84959;BME280;75256;48.062;11.662;2024-03-25T04:28:19;94517.28;;;1.75;84.17
84959;BME280;75256;48.062;11.662;2024-03-25T04:30:51;94526.22;;;1.69;84.39
84959;BME280;75256;48.062;11.662;2024-03-25T04:33:17;94513.88;;;1.71;84.46
84959;BME280;75256;48.062;11.662;2024-03-25T04:35:45;94522.47;;;1.63;84.95
84959;BME280;75256;48.062;11.662;2024-03-25T04:38:15;94512.75;;;1.69;84.49
84959;BME280;75256;48.062;11.662;2024-03-25T04:40:41;94524.78;;;1.61;84.51
84959;BME280;75256;48.062;11.662;2024-03-25T04:43:06;94518.59;;;1.64;84.60
84959;BME280;75256;48.062;11.662;2024-03-25T04:45:32;94530.50;;;1.66;84.67
84959;BME280;75256;48.062;11.662;2024-03-25T04:47:59;94518.84;;;1.73;84.24
84959;BME280;75256;48.062;11.662;2024-03-25T04:50:27;94528.13;;;1.68;83.84
84959;BME280;75256;48.062;11.662;2024-03-25T04:52:55;94520.28;;;1.54;84.69
84959;BME280;75256;48.062;11.662;2024-03-25T04:55:23;94520.44;;;1.44;86.06
84959;BME280;75256;48.062;11.662;2024-03-25T04:57:48;94519.91;;;1.52;85.71
84959;BME280;75256;48.062;11.662;2024-03-25T05:00:14;94525.09;;;1.66;84.80
84959;BME280;75256;48.062;11.662;2024-03-25T05:02:44;94519.16;;;1.52;84.92
84959;BME280;75256;48.062;11.662;2024-03-25T05:05:12;94519.16;;;1.52;85.41
84959;BME280;75256;48.062;11.662;2024-03-25T05:07:37;94529.81;;;1.59;84.84
84959;BME280;75256;48.062;11.662;2024-03-25T05:10:03;94529.81;;;1.59;84.77
84959;BME280;75256;48.062;11.662;2024-03-25T05:12:29;94536.09;;;1.49;85.61
84959;BME280;75256;48.062;11.662;2024-03-25T05:14:55;94533.88;;;1.44;85.67
84959;BME280;75256;48.062;11.662;2024-03-25T05:17:24;94538.38;;;1.50;85.65
84959;BME280;75256;48.062;11.662;2024-03-25T05:19:49;94543.34;;;1.52;85.27
84959;BME280;75256;48.062;11.662;2024-03-25T05:22:16;94547.25;;;1.47;85.76
84959;BME280;75256;48.062;11.662;2024-03-25T05:24:43;94552.16;;;1.56;85.39
84959;BME280;75256;48.062;11.662;2024-03-25T05:27:18;94558.84;;;1.71;84.46
84959;BME280;75256;48.062;11.662;2024-03-25T05:29:44;94554.59;;;1.43;85.60
84959;BME280;75256;48.062;11.662;2024-03-25T05:32:11;94557.16;;;1.54;84.50
84959;BME280;75256;48.062;11.662;2024-03-25T05:34:37;94552.50;;;1.58;84.16
84959;BME280;75256;48.062;11.662;2024-03-25T05:37:02;94555.94;;;1.58;84.50
84959;BME280;75256;48.062;11.662;2024-03-25T05:39:28;94549.91;;;1.51;84.89
84959;BME280;75256;48.062;11.662;2024-03-25T05:41:53;94556.06;;;1.51;85.12
84959;BME280;75256;48.062;11.662;2024-03-25T05:44:21;94558.75;;;1.51;84.78
84959;BME280;75256;48.062;11.662;2024-03-25T05:46:46;94557.44;;;1.63;84.60
84959;BME280;75256;48.062;11.662;2024-03-25T05:49:14;94567.91;;;1.54;84.34
84959;BME280;75256;48.062;11.662;2024-03-25T05:51:39;94563.97;;;1.62;84.55
84959;BME280;75256;48.062;11.662;2024-03-25T05:54:04;94562.69;;;1.70;84.73
84959;BME280;75256;48.062;11.662;2024-03-25T05:56:34;94562.41;;;1.64;84.42
84959;BME280;75256;48.062;11.662;2024-03-25T05:59:00;94570.75;;;1.70;84.29
84959;BME280;75256;48.062;11.662;2024-03-25T06:01:26;94582.88;;;1.85;84.14
84959;BME280;75256;48.062;11.662;2024-03-25T06:03:55;94568.75;;;1.77;84.16
84959;BME280;75256;48.062;11.662;2024-03-25T06:06:20;94570.06;;;1.92;83.11
84959;BME280;75256;48.062;11.662;2024-03-25T06:08:46;94575.13;;;1.87;83.41
84959;BME280;75256;48.062;11.662;2024-03-25T06:11:12;94578.53;;;1.91;83.37
84959;BME280;75256;48.062;11.662;2024-03-25T06:13:42;94581.53;;;1.96;83.30
84959;BME280;75256;48.062;11.662;2024-03-25T06:16:07;94568.66;;;2.07;82.79
84959;BME280;75256;48.062;11.662;2024-03-25T06:18:35;94577.47;;;2.11;82.48
84959;BME280;75256;48.062;11.662;2024-03-25T06:21:03;94571.19;;;2.18;82.63
84959;BME280;75256;48.062;11.662;2024-03-25T06:23:31;94573.19;;;2.14;82.76
84959;BME280;75256;48.062;11.662;2024-03-25T06:25:59;94569.44;;;2.31;81.86
84959;BME280;75256;48.062;11.662;2024-03-25T06:28:24;94578.22;;;2.35;81.77
84959;BME280;75256;48.062;11.662;2024-03-25T06:30:51;94578.16;;;2.62;81.06
84959;BME280;75256;48.062;11.662;2024-03-25T06:33:37;94585.00;;;2.66;80.82
84959;BME280;75256;48.062;11.662;2024-03-25T06:36:21;94586.38;;;2.97;79.17
84959;BME280;75256;48.062;11.662;2024-03-25T06:38:47;94587.56;;;2.73;79.87
84959;BME280;75256;48.062;11.662;2024-03-25T06:41:12;94582.69;;;2.88;79.95
84959;BME280;75256;48.062;11.662;2024-03-25T06:43:40;94592.44;;;3.01;79.04
84959;BME280;75256;48.062;11.662;2024-03-25T06:46:06;94586.22;;;3.04;78.84
84959;BME280;75256;48.062;11.662;2024-03-25T06:48:33;94579.53;;;3.12;78.91
84959;BME280;75256;48.062;11.662;2024-03-25T06:51:00;94585.00;;;3.09;79.15
84959;BME280;75256;48.062;11.662;2024-03-25T06:53:28;94588.16;;;3.23;78.58
84959;BME280;75256;48.062;11.662;2024-03-25T06:55:55;94595.34;;;3.30;78.49
84959;BME280;75256;48.062;11.662;2024-03-25T06:58:21;94582.56;;;3.34;77.64
84959;BME280;75256;48.062;11.662;2024-03-25T07:00:49;94579.84;;;3.53;76.75
84959;BME280;75256;48.062;11.662;2024-03-25T07:03:19;94579.84;;;3.53;76.07
84959;BME280;75256;48.062;11.662;2024-03-25T07:05:49;94581.88;;;3.49;76.70
84959;BME280;75256;48.062;11.662;2024-03-25T07:08:15;94585.44;;;3.62;76.01
84959;BME280;75256;48.062;11.662;2024-03-25T07:10:44;94589.59;;;3.67;75.45
84959;BME280;75256;48.062;11.662;2024-03-25T07:13:11;94581.41;;;3.70;75.89
84959;BME280;75256;48.062;11.662;2024-03-25T07:15:39;94578.22;;;3.75;75.44
84959;BME280;75256;48.062;11.662;2024-03-25T07:18:07;94576.38;;;3.89;74.87
84959;BME280;75256;48.062;11.662;2024-03-25T07:20:36;94579.84;;;3.89;74.64
84959;BME280;75256;48.062;11.662;2024-03-25T07:23:02;94579.13;;;4.05;74.16
84959;BME280;75256;48.062;11.662;2024-03-25T07:25:30;94576.75;;;4.07;73.53
84959;BME280;75256;48.062;11.662;2024-03-25T07:27:56;94576.78;;;4.23;72.15
84959;BME280;75256;48.062;11.662;2024-03-25T07:30:21;94581.31;;;4.26;72.19
84959;BME280;75256;48.062;11.662;2024-03-25T07:32:56;94578.88;;;4.31;71.49
84959;BME280;75256;48.062;11.662;2024-03-25T07:35:25;94581.59;;;4.31;72.49
84959;BME280;75256;48.062;11.662;2024-03-25T07:37:51;94581.66;;;4.28;72.81
84959;BME280;75256;48.062;11.662;2024-03-25T07:40:20;94575.16;;;4.41;72.30
84959;BME280;75256;48.062;11.662;2024-03-25T07:42:47;94570.84;;;4.44;72.49
84959;BME280;75256;48.062;11.662;2024-03-25T07:45:14;94574.47;;;4.37;72.58
84959;BME280;75256;48.062;11.662;2024-03-25T07:47:41;94570.34;;;4.49;71.53
84959;BME280;75256;48.062;11.662;2024-03-25T07:50:07;94576.91;;;4.64;69.34
84959;BME280;75256;48.062;11.662;2024-03-25T07:52:33;94578.00;;;4.66;69.63
84959;BME280;75256;48.062;11.662;2024-03-25T07:55:01;94576.66;;;4.74;70.04
84959;BME280;75256;48.062;11.662;2024-03-25T07:57:26;94581.97;;;4.78;68.58
84959;BME280;75256;48.062;11.662;2024-03-25T07:59:52;94574.44;;;4.85;68.17
84959;BME280;75256;48.062;11.662;2024-03-25T08:02:20;94576.28;;;4.88;68.87
84959;BME280;75256;48.062;11.662;2024-03-25T08:04:47;94573.16;;;4.90;68.98
84959;BME280;75256;48.062;11.662;2024-03-25T08:07:13;94574.50;;;4.98;68.74
84959;BME280;75256;48.062;11.662;2024-03-25T08:09:40;94571.94;;;5.07;69.57
84959;BME280;75256;48.062;11.662;2024-03-25T08:12:06;94575.63;;;5.13;68.84
84959;BME280;75256;48.062;11.662;2024-03-25T08:14:32;94577.78;;;5.34;65.56
84959;BME280;75256;48.062;11.662;2024-03-25T08:16:57;94567.63;;;5.51;66.04
84959;BME280;75256;48.062;11.662;2024-03-25T08:19:25;94564.13;;;5.38;64.86
84959;BME280;75256;48.062;11.662;2024-03-25T08:21:50;94560.66;;;5.37;65.16
84959;BME280;75256;48.062;11.662;2024-03-25T08:24:16;94572.88;;;5.29;67.04
84959;BME280;75256;48.062;11.662;2024-03-25T08:26:41;94575.59;;;5.29;65.24
84959;BME280;75256;48.062;11.662;2024-03-25T08:29:09;94574.44;;;5.55;63.55
84959;BME280;75256;48.062;11.662;2024-03-25T08:31:34;94571.44;;;5.78;60.59
84959;BME280;75256;48.062;11.662;2024-03-25T08:34:02;94577.03;;;5.87;62.68
84959;BME280;75256;48.062;11.662;2024-03-25T08:36:27;94574.41;;;5.84;60.01
84959;BME280;75256;48.062;11.662;2024-03-25T08:38:53;94569.06;;;5.80;59.62
84959;BME280;75256;48.062;11.662;2024-03-25T08:41:21;94575.41;;;6.02;59.78
84959;BME280;75256;48.062;11.662;2024-03-25T08:43:46;94581.50;;;6.06;60.54
84959;BME280;75256;48.062;11.662;2024-03-25T08:46:11;94573.44;;;6.15;60.34
84959;BME280;75256;48.062;11.662;2024-03-25T08:48:39;94567.16;;;6.18;59.53
84959;BME280;75256;48.062;11.662;2024-03-25T08:51:04;94560.78;;;5.87;59.89
84959;BME280;75256;48.062;11.662;2024-03-25T08:53:32;94568.13;;;5.87;60.47
84959;BME280;75256;48.062;11.662;2024-03-25T08:56:00;94567.16;;;5.93;60.95
84959;BME280;75256;48.062;11.662;2024-03-25T08:58:26;94562.28;;;6.13;59.63
84959;BME280;75256;48.062;11.662;2024-03-25T09:00:51;94574.41;;;6.47;59.09
84959;BME280;75256;48.062;11.662;2024-03-25T09:03:16;94553.03;;;6.49;57.16
84959;BME280;75256;48.062;11.662;2024-03-25T09:05:44;94565.53;;;6.21;55.51
84959;BME280;75256;48.062;11.662;2024-03-25T09:08:12;94559.16;;;6.27;58.29
84959;BME280;75256;48.062;11.662;2024-03-25T09:10:43;94555.34;;;6.25;58.94
84959;BME280;75256;48.062;11.662;2024-03-25T09:13:27;94551.88;;;6.24;54.66
84959;BME280;75256;48.062;11.662;2024-03-25T09:15:53;94558.50;;;6.23;55.93
84959;BME280;75256;48.062;11.662;2024-03-25T09:18:19;94552.22;;;6.26;54.42
84959;BME280;75256;48.062;11.662;2024-03-25T09:20:44;94557.06;;;6.57;54.61
84959;BME280;75256;48.062;11.662;2024-03-25T09:23:09;94547.38;;;6.56;54.62
84959;BME280;75256;48.062;11.662;2024-03-25T09:25:37;94545.66;;;6.62;55.08
84959;BME280;75256;48.062;11.662;2024-03-25T09:28:03;94543.56;;;6.66;54.09
84959;BME280;75256;48.062;11.662;2024-03-25T09:30:28;94534.09;;;6.83;51.20
84959;BME280;75256;48.062;11.662;2024-03-25T09:32:53;94535.75;;;7.02;51.98
84959;BME280;75256;48.062;11.662;2024-03-25T09:35:19;94531.63;;;6.97;52.62
84959;BME280;75256;48.062;11.662;2024-03-25T09:37:45;94533.44;;;6.79;48.85
84959;BME280;75256;48.062;11.662;2024-03-25T09:40:13;94537.63;;;6.92;50.73
84959;BME280;75256;48.062;11.662;2024-03-25T09:42:47;94530.81;;;6.88;48.63
84959;BME280;75256;48.062;11.662;2024-03-25T09:45:16;94527.94;;;7.04;50.38
84959;BME280;75256;48.062;11.662;2024-03-25T09:47:45;94533.31;;;6.82;47.67
84959;BME280;75256;48.062;11.662;2024-03-25T09:50:14;94532.56;;;6.82;46.88
84959;BME280;75256;48.062;11.662;2024-03-25T09:52:49;94526.50;;;6.78;49.12
84959;BME280;75256;48.062;11.662;2024-03-25T09:55:14;94519.34;;;7.05;47.80
84959;BME280;75256;48.062;11.662;2024-03-25T09:57:43;94520.72;;;6.88;50.10
84959;BME280;75256;48.062;11.662;2024-03-25T10:00:09;94524.94;;;6.89;49.94
84959;BME280;75256;48.062;11.662;2024-03-25T10:02:39;94521.13;;;6.65;46.18
84959;BME280;75256;48.062;11.662;2024-03-25T10:05:05;94508.31;;;6.66;47.69
84959;BME280;75256;48.062;11.662;2024-03-25T10:07:32;94513.34;;;6.89;49.46
84959;BME280;75256;48.062;11.662;2024-03-25T10:09:57;94499.66;;;6.92;48.81
84959;BME280;75256;48.062;11.662;2024-03-25T10:12:25;94499.03;;;7.10;47.16
84959;BME280;75256;48.062;11.662;2024-03-25T10:14:53;94499.91;;;7.28;46.50
84959;BME280;75256;48.062;11.662;2024-03-25T10:17:19;94503.19;;;7.45;46.33
84959;BME280;75256;48.062;11.662;2024-03-25T10:19:44;94486.25;;;7.63;46.13
84959;BME280;75256;48.062;11.662;2024-03-25T10:22:12;94489.44;;;7.70;45.74
84959;BME280;75256;48.062;11.662;2024-03-25T10:24:41;94488.06;;;7.66;45.92
84959;BME280;75256;48.062;11.662;2024-03-25T10:27:11;94481.38;;;7.57;47.29
84959;BME280;75256;48.062;11.662;2024-03-25T10:29:42;94473.44;;;7.72;45.10
84959;BME280;75256;48.062;11.662;2024-03-25T10:32:07;94475.91;;;7.79;46.40
84959;BME280;75256;48.062;11.662;2024-03-25T10:34:33;94472.28;;;7.82;44.11
84959;BME280;75256;48.062;11.662;2024-03-25T10:37:04;94461.28;;;7.86;43.71
84959;BME280;75256;48.062;11.662;2024-03-25T10:39:31;94465.03;;;7.88;44.07
84959;BME280;75256;48.062;11.662;2024-03-25T10:41:59;94461.34;;;8.04;44.76
84959;BME280;75256;48.062;11.662;2024-03-25T10:44:27;94454.66;;;7.96;43.86
84959;BME280;75256;48.062;11.662;2024-03-25T10:47:01;94458.44;;;7.98;45.94
84959;BME280;75256;48.062;11.662;2024-03-25T10:49:33;94450.16;;;8.02;45.97
84959;BME280;75256;48.062;11.662;2024-03-25T10:52:00;94451.50;;;7.97;45.02
84959;BME280;75256;48.062;11.662;2024-03-25T10:54:29;94443.03;;;7.95;44.60
84959;BME280;75256;48.062;11.662;2024-03-25T10:56:57;94431.75;;;8.06;41.41
84959;BME280;75256;48.062;11.662;2024-03-25T10:59:24;94432.34;;;8.10;43.13
84959;BME280;75256;48.062;11.662;2024-03-25T11:01:49;94433.75;;;8.14;44.60
84959;BME280;75256;48.062;11.662;2024-03-25T11:04:15;94432.22;;;8.22;43.13
84959;BME280;75256;48.062;11.662;2024-03-25T11:06:43;94424.28;;;8.37;45.18
84959;BME280;75256;48.062;11.662;2024-03-25T11:09:08;94428.81;;;8.76;43.39
84959;BME280;75256;48.062;11.662;2024-03-25T11:11:34;94421.41;;;9.04;42.78
84959;BME280;75256;48.062;11.662;2024-03-25T11:14:14;94423.34;;;9.12;43.27
84959;BME280;75256;48.062;11.662;2024-03-25T11:16:52;94416.84;;;9.10;41.21
84959;BME280;75256;48.062;11.662;2024-03-25T11:19:18;94407.09;;;9.36;42.14
84959;BME280;75256;48.062;11.662;2024-03-25T11:21:48;94404.91;;;9.58;44.53
84959;BME280;75256;48.062;11.662;2024-03-25T11:24:13;94399.97;;;9.80;40.22
84959;BME280;75256;48.062;11.662;2024-03-25T11:26:42;94397.72;;;10.11;43.40
84959;BME280;75256;48.062;11.662;2024-03-25T11:29:15;94393.81;;;10.27;43.34
84959;BME280;75256;48.062;11.662;2024-03-25T11:31:44;94382.47;;;10.28;38.98
84959;BME280;75256;48.062;11.662;2024-03-25T11:34:12;94380.31;;;10.09;43.16
84959;BME280;75256;48.062;11.662;2024-03-25T11:36:37;94386.31;;;9.89;39.32
84959;BME280;75256;48.062;11.662;2024-03-25T11:39:04;94377.97;;;9.92;43.91
84959;BME280;75256;48.062;11.662;2024-03-25T11:41:36;94380.09;;;10.21;41.96
84959;BME280;75256;48.062;11.662;2024-03-25T11:44:06;94376.84;;;9.75;38.85
84959;BME280;75256;48.062;11.662;2024-03-25T11:46:39;94358.91;;;9.83;40.02
84959;BME280;75256;48.062;11.662;2024-03-25T11:49:12;94360.66;;;10.28;41.66
84959;BME280;75256;48.062;11.662;2024-03-25T11:51:43;94359.81;;;10.89;41.17
84959;BME280;75256;48.062;11.662;2024-03-25T11:54:15;94359.91;;;11.24;40.85
84959;BME280;75256;48.062;11.662;2024-03-25T11:56:41;94347.38;;;10.21;37.38
84959;BME280;75256;48.062;11.662;2024-03-25T11:59:11;94348.53;;;10.44;39.46
84959;BME280;75256;48.062;11.662;2024-03-25T12:01:40;94351.34;;;10.35;37.69
84959;BME280;75256;48.062;11.662;2024-03-25T12:04:16;94347.13;;;9.54;37.56
84959;BME280;75256;48.062;11.662;2024-03-25T12:06:43;94341.19;;;9.23;41.62
84959;BME280;75256;48.062;11.662;2024-03-25T12:09:11;94333.00;;;10.35;39.79
84959;BME280;75256;48.062;11.662;2024-03-25T12:11:55;94330.50;;;10.61;41.28
84959;BME280;75256;48.062;11.662;2024-03-25T12:14:23;94324.56;;;10.33;42.26
84959;BME280;75256;48.062;11.662;2024-03-25T12:16:51;94323.97;;;10.96;40.46
84959;BME280;75256;48.062;11.662;2024-03-25T12:19:19;94307.75;;;10.93;39.50
84959;BME280;75256;48.062;11.662;2024-03-25T12:21:44;94306.78;;;11.10;40.91
84959;BME280;75256;48.062;11.662;2024-03-25T12:24:11;94316.13;;;10.22;39.45
84959;BME280;75256;48.062;11.662;2024-03-25T12:26:36;94309.22;;;10.50;37.26
84959;BME280;75256;48.062;11.662;2024-03-25T12:29:05;94290.16;;;9.88;40.34
84959;BME280;75256;48.062;11.662;2024-03-25T12:31:31;94294.13;;;10.11;37.50
84959;BME280;75256;48.062;11.662;2024-03-25T12:33:58;94282.47;;;10.25;38.34
84959;BME280;75256;48.062;11.662;2024-03-25T12:36:24;94287.44;;;10.27;38.41
84959;BME280;75256;48.062;11.662;2024-03-25T12:38:55;94281.78;;;9.92;37.23
84959;BME280;75256;48.062;11.662;2024-03-25T12:41:24;94280.34;;;9.82;36.64
84959;BME280;75256;48.062;11.662;2024-03-25T12:43:50;94272.91;;;10.06;38.76
84959;BME280;75256;48.062;11.662;2024-03-25T12:46:18;94276.16;;;10.19;36.20
84959;BME280;75256;48.062;11.662;2024-03-25T12:48:44;94272.91;;;10.44;35.68
84959;BME280;75256;48.062;11.662;2024-03-25T12:51:16;94268.03;;;10.77;39.99
84959;BME280;75256;48.062;11.662;2024-03-25T12:53:41;94258.31;;;11.20;36.84
84959;BME280;75256;48.062;11.662;2024-03-25T12:56:07;94255.03;;;11.51;39.55
84959;BME280;75256;48.062;11.662;2024-03-25T12:58:33;94252.81;;;11.69;36.81
84959;BME280;75256;48.062;11.662;2024-03-25T13:00:58;94247.13;;;11.73;36.57